createdAt,value
2023-05-22T00:00:24.957Z,34.66
2023-05-22T00:01:24.935Z,34.67
2023-05-22T00:02:24.940Z,34.63
2023-05-22T00:03:24.947Z,34.63
2023-05-22T00:04:24.893Z,34.63
2023-05-22T00:05:24.902Z,34.67
2023-05-22T00:06:24.856Z,34.66
2023-05-22T00:07:24.842Z,34.66
2023-05-22T00:08:25.799Z,34.61
2023-05-22T00:09:24.807Z,34.63
2023-05-22T00:10:24.794Z,34.67
2023-05-22T00:11:24.775Z,34.63
2023-05-22T00:12:24.758Z,34.60
2023-05-22T00:13:24.773Z,34.61
2023-05-22T00:14:24.724Z,34.61
2023-05-22T00:15:24.714Z,34.58
2023-05-22T00:16:24.733Z,34.57
2023-05-22T00:17:24.779Z,34.55
2023-05-22T00:18:24.681Z,34.53
2023-05-22T00:19:24.669Z,34.56
2023-05-22T00:20:24.637Z,34.51
2023-05-22T00:21:24.651Z,34.56
2023-05-22T00:22:24.616Z,34.52
2023-05-22T00:23:24.598Z,34.53
2023-05-22T00:24:24.579Z,34.47
2023-05-22T00:25:24.557Z,34.44
2023-05-22T00:26:24.545Z,34.46
2023-05-22T00:27:24.522Z,34.47
2023-05-22T00:28:24.517Z,34.42
2023-05-22T00:29:24.499Z,34.45
2023-05-22T00:30:24.452Z,34.40
2023-05-22T00:31:24.432Z,34.43
2023-05-22T00:32:24.546Z,34.39
2023-05-22T00:33:24.515Z,34.41
2023-05-22T00:34:24.595Z,34.41
2023-05-22T00:35:24.605Z,34.40
2023-05-22T00:36:24.665Z,34.39
2023-05-22T00:37:24.707Z,34.39
2023-05-22T00:38:24.765Z,34.38
2023-05-22T00:39:24.818Z,34.38
2023-05-22T00:40:24.852Z,34.40
2023-05-22T00:41:24.908Z,34.35
2023-05-22T00:42:24.950Z,34.34
2023-05-22T00:43:25.036Z,34.34
2023-05-22T00:44:25.074Z,34.32
2023-05-22T00:45:25.124Z,34.31
2023-05-22T00:46:25.186Z,34.36
2023-05-22T00:47:25.221Z,34.36
2023-05-22T00:48:25.275Z,34.32
2023-05-22T00:49:25.321Z,34.32
2023-05-22T00:50:25.393Z,34.30
2023-05-22T00:51:25.419Z,34.32
2023-05-22T00:52:25.450Z,34.30
2023-05-22T00:53:25.512Z,34.34
2023-05-22T00:54:25.543Z,34.30
2023-05-22T00:55:25.595Z,34.32
2023-05-22T00:56:25.632Z,34.32
2023-05-22T00:57:25.687Z,34.32
2023-05-22T00:58:25.728Z,34.29
2023-05-22T00:59:25.774Z,34.29
2023-05-22T01:00:25.826Z,34.27
2023-05-22T01:01:26.021Z,34.26
2023-05-22T01:02:25.965Z,34.30
2023-05-22T01:03:26.277Z,34.27
2023-05-22T01:04:25.976Z,34.32
2023-05-22T01:05:26.009Z,34.28
2023-05-22T01:06:26.051Z,34.32
2023-05-22T01:07:26.095Z,34.24
2023-05-22T01:08:26.148Z,34.29
2023-05-22T01:09:26.201Z,34.31
2023-05-22T01:10:26.245Z,34.29
2023-05-22T01:11:26.288Z,34.28
2023-05-22T01:12:26.332Z,34.28
2023-05-22T01:13:26.384Z,34.24
2023-05-22T01:14:26.434Z,34.34
2023-05-22T01:15:26.504Z,34.27
2023-05-22T01:16:26.623Z,34.27
2023-05-22T01:17:26.618Z,34.28
2023-05-22T01:18:26.633Z,34.26
2023-05-22T01:19:26.746Z,34.27
2023-05-22T01:20:26.714Z,34.28
2023-05-22T01:21:26.755Z,34.30
2023-05-22T01:22:26.808Z,34.27
2023-05-22T01:23:26.851Z,34.28
2023-05-22T01:24:26.891Z,34.24
2023-05-22T01:25:26.944Z,34.26
2023-05-22T01:26:26.989Z,34.23
2023-05-22T01:27:27.073Z,34.26
2023-05-22T01:28:27.075Z,34.27
2023-05-22T01:29:27.125Z,34.23
2023-05-22T01:30:27.176Z,34.22
2023-05-22T01:31:27.238Z,34.24
2023-05-22T01:32:27.339Z,34.28
2023-05-22T01:33:27.479Z,34.27
2023-05-22T01:34:27.364Z,34.24
2023-05-22T01:35:27.418Z,34.27
2023-05-22T01:36:27.492Z,34.29
2023-05-22T01:37:27.514Z,34.23
2023-05-22T01:38:27.561Z,34.26
2023-05-22T01:39:27.612Z,34.28
2023-05-22T01:40:27.643Z,34.28
2023-05-22T01:41:27.658Z,34.23
2023-05-22T01:42:27.701Z,34.24
2023-05-22T01:43:27.745Z,34.21
2023-05-22T01:44:27.796Z,34.27
2023-05-22T01:45:27.893Z,34.27
2023-05-22T01:46:28.049Z,34.23
2023-05-22T01:47:27.972Z,34.27
2023-05-22T01:48:27.979Z,34.24
2023-05-22T01:49:28.036Z,34.23
2023-05-22T01:50:28.065Z,34.24
2023-05-22T01:51:28.107Z,34.21
2023-05-22T01:52:28.627Z,34.21
2023-05-22T01:53:28.209Z,34.21
2023-05-22T01:54:28.281Z,34.23
2023-05-22T01:55:28.308Z,34.24
2023-05-22T01:56:28.322Z,34.23
2023-05-22T01:57:28.359Z,34.25
2023-05-22T01:58:28.407Z,34.21
2023-05-22T01:59:28.464Z,34.24
2023-05-22T02:00:28.559Z,34.24
2023-05-22T02:01:28.605Z,34.22
2023-05-22T02:02:28.691Z,34.22
2023-05-22T02:03:28.790Z,34.23
2023-05-22T02:04:28.702Z,34.24
2023-05-22T02:05:28.806Z,34.21
2023-05-22T02:06:28.831Z,34.26
2023-05-22T02:07:28.846Z,34.24
2023-05-22T02:08:28.913Z,34.20
2023-05-22T02:09:28.937Z,34.24
2023-05-22T02:10:28.977Z,34.25
2023-05-22T02:11:29.032Z,34.27
2023-05-22T02:12:29.080Z,34.24
2023-05-22T02:13:29.127Z,34.21
2023-05-22T02:14:29.226Z,34.24
2023-05-22T02:15:29.225Z,34.23
2023-05-22T02:16:29.270Z,34.27
2023-05-22T02:17:29.332Z,34.18
2023-05-22T02:18:29.400Z,34.23
2023-05-22T02:19:29.523Z,34.21
2023-05-22T02:20:29.479Z,34.21
2023-05-22T02:21:29.577Z,34.24
2023-05-22T02:22:29.587Z,34.24
2023-05-22T02:23:29.919Z,34.24
2023-05-22T02:24:29.664Z,34.21
2023-05-22T02:25:29.711Z,34.24
2023-05-22T02:26:29.766Z,34.25
2023-05-22T02:27:29.814Z,34.20
2023-05-22T02:28:29.865Z,34.21
2023-05-22T02:29:29.986Z,34.21
2023-05-22T02:30:29.934Z,34.21
2023-05-22T02:31:29.993Z,34.22
2023-05-22T02:32:29.995Z,34.21
2023-05-22T02:33:30.132Z,34.24
2023-05-22T02:34:30.049Z,34.24
2023-05-22T02:35:30.091Z,34.21
2023-05-22T02:36:30.138Z,34.23
2023-05-22T02:37:30.210Z,34.21
2023-05-22T02:38:30.232Z,34.21
2023-05-22T02:39:30.277Z,34.25
2023-05-22T02:40:30.315Z,34.20
2023-05-22T02:41:30.387Z,34.19
2023-05-22T02:42:30.412Z,34.20
2023-05-22T02:43:30.458Z,34.20
2023-05-22T02:44:30.497Z,34.19
2023-05-22T02:45:30.539Z,34.19
2023-05-22T02:46:30.618Z,34.21
2023-05-22T02:47:30.727Z,34.23
2023-05-22T02:48:30.686Z,34.23
2023-05-22T02:49:30.776Z,34.21
2023-05-22T02:50:30.777Z,34.20
2023-05-22T02:51:30.815Z,34.21
2023-05-22T02:52:30.864Z,34.21
2023-05-22T02:53:30.935Z,34.25
2023-05-22T02:54:30.950Z,34.19
2023-05-22T02:55:30.997Z,34.20
2023-05-22T02:56:31.045Z,34.21
2023-05-22T02:57:31.093Z,34.18
2023-05-22T02:58:31.141Z,34.21
2023-05-22T02:59:31.199Z,34.19
2023-05-22T03:00:31.245Z,34.23
2023-05-22T03:01:31.316Z,34.20
2023-05-22T03:02:31.357Z,34.19
2023-05-22T03:03:31.513Z,34.23
2023-05-22T03:04:31.398Z,34.19
2023-05-22T03:05:31.437Z,34.16
2023-05-22T03:06:31.494Z,34.18
2023-05-22T03:07:31.527Z,34.20
2023-05-22T03:08:31.559Z,34.20
2023-05-22T03:09:31.638Z,34.20
2023-05-22T03:10:31.666Z,34.23
2023-05-22T03:11:31.727Z,34.19
2023-05-22T03:12:31.768Z,34.22
2023-05-22T03:13:31.773Z,34.21
2023-05-22T03:14:31.810Z,34.22
2023-05-22T03:15:31.869Z,34.24
2023-05-22T03:16:31.910Z,34.21
2023-05-22T03:17:32.005Z,34.21
2023-05-22T03:18:31.986Z,34.25
2023-05-22T03:19:32.078Z,34.22
2023-05-22T03:20:32.053Z,34.20
2023-05-22T03:21:32.107Z,34.24
2023-05-22T03:22:32.157Z,34.21
2023-05-22T03:23:32.210Z,34.23
2023-05-22T03:24:32.236Z,34.22
2023-05-22T03:25:32.287Z,34.20
2023-05-22T03:26:32.296Z,34.19
2023-05-22T03:27:32.328Z,34.21
2023-05-22T03:28:32.426Z,34.20
2023-05-22T03:29:32.429Z,34.22
2023-05-22T03:30:32.488Z,34.19
2023-05-22T03:31:32.536Z,34.21
2023-05-22T03:32:32.589Z,34.19
2023-05-22T03:33:32.625Z,34.22
2023-05-22T03:34:32.644Z,34.21
2023-05-22T03:35:32.696Z,34.21
2023-05-22T03:36:32.731Z,34.22
2023-05-22T03:37:32.770Z,34.21
2023-05-22T03:38:32.822Z,34.21
2023-05-22T03:39:32.876Z,34.16
2023-05-22T03:40:32.890Z,34.15
2023-05-22T03:41:32.971Z,34.20
2023-05-22T03:42:32.973Z,34.20
2023-05-22T03:43:33.022Z,34.21
2023-05-22T03:44:33.062Z,34.19
2023-05-22T03:45:33.141Z,34.21
2023-05-22T03:46:33.164Z,34.21
2023-05-22T03:47:33.246Z,34.20
2023-05-22T03:48:33.263Z,34.21
2023-05-22T03:49:33.314Z,34.16
2023-05-22T03:50:33.413Z,34.21
2023-05-22T03:51:33.423Z,34.22
2023-05-22T03:52:33.454Z,34.19
2023-05-22T03:53:33.505Z,34.21
2023-05-22T03:54:33.566Z,34.21
2023-05-22T03:55:33.659Z,34.20
2023-05-22T03:56:33.689Z,34.19
2023-05-22T03:57:33.825Z,34.19
2023-05-22T03:58:33.786Z,34.22
2023-05-22T03:59:33.824Z,34.21
2023-05-22T04:00:33.885Z,34.17
2023-05-22T04:01:33.941Z,34.20
2023-05-22T04:02:34.096Z,34.17
2023-05-22T04:03:34.087Z,34.21
2023-05-22T04:04:34.178Z,34.21
2023-05-22T04:05:34.258Z,34.16
2023-05-22T04:06:34.211Z,34.25
2023-05-22T04:07:34.240Z,34.20
2023-05-22T04:08:34.310Z,34.16
2023-05-22T04:09:34.361Z,34.22
2023-05-22T04:10:34.398Z,34.21
2023-05-22T04:11:34.469Z,34.20
2023-05-22T04:12:34.501Z,34.21
2023-05-22T04:13:34.576Z,34.19
2023-05-22T04:14:34.598Z,34.15
2023-05-22T04:15:34.663Z,34.19
2023-05-22T04:16:34.690Z,34.19
2023-05-22T04:17:34.796Z,34.20
2023-05-22T04:18:34.826Z,34.20
2023-05-22T04:19:34.987Z,34.15
2023-05-22T04:20:34.925Z,34.17
2023-05-22T04:21:34.962Z,34.21
2023-05-22T04:22:35.184Z,34.16
2023-05-22T04:23:35.077Z,34.19
2023-05-22T04:24:35.124Z,34.17
2023-05-22T04:25:35.176Z,34.17
2023-05-22T04:26:35.233Z,34.20
2023-05-22T04:27:35.277Z,34.20
2023-05-22T04:28:35.348Z,34.22
2023-05-22T04:29:35.415Z,34.19
2023-05-22T04:30:35.491Z,34.19
2023-05-22T04:31:35.605Z,34.19
2023-05-22T04:32:35.637Z,34.20
2023-05-22T04:33:35.606Z,34.17
2023-05-22T04:34:35.656Z,34.20
2023-05-22T04:35:35.707Z,34.17
2023-05-22T04:36:35.764Z,34.15
2023-05-22T04:37:35.834Z,34.25
2023-05-22T04:38:35.881Z,34.19
2023-05-22T04:39:35.916Z,34.21
2023-05-22T04:40:35.977Z,34.25
2023-05-22T04:41:36.035Z,34.15
2023-05-22T04:42:36.113Z,34.16
2023-05-22T04:43:36.153Z,34.17
2023-05-22T04:44:36.210Z,34.17
2023-05-22T04:45:36.295Z,34.20
2023-05-22T04:46:36.417Z,34.17
2023-05-22T04:47:36.465Z,34.21
2023-05-22T04:48:36.433Z,34.16
2023-05-22T04:49:36.482Z,34.21
2023-05-22T04:50:36.560Z,34.20
2023-05-22T04:51:36.595Z,34.16
2023-05-22T04:52:36.664Z,34.19
2023-05-22T04:53:36.763Z,34.19
2023-05-22T04:54:36.823Z,34.15
2023-05-22T04:55:36.817Z,34.17
2023-05-22T04:56:37.504Z,34.15
2023-05-22T04:57:36.904Z,34.15
2023-05-22T04:58:36.932Z,34.16
2023-05-22T04:59:36.989Z,34.17
2023-05-22T05:00:37.163Z,34.18
2023-05-22T05:01:37.199Z,34.19
2023-05-22T05:02:37.231Z,34.14
2023-05-22T05:03:37.249Z,34.11
2023-05-22T05:04:37.274Z,34.14
2023-05-22T05:05:37.313Z,34.16
2023-05-22T05:06:37.373Z,34.16
2023-05-22T05:07:37.440Z,34.16
2023-05-22T05:08:37.466Z,34.14
2023-05-22T05:09:37.517Z,34.15
2023-05-22T05:10:38.029Z,34.13
2023-05-22T05:11:37.643Z,34.11
2023-05-22T05:12:37.678Z,34.06
2023-05-22T05:13:37.727Z,34.04
2023-05-22T05:14:38.193Z,33.94
2023-05-22T05:15:37.823Z,33.89
2023-05-22T05:16:37.953Z,33.87
2023-05-22T05:17:37.991Z,33.74
2023-05-22T05:18:38.000Z,33.74
2023-05-22T05:19:38.139Z,33.65
2023-05-22T05:20:38.347Z,33.62
2023-05-22T05:21:38.165Z,33.52
2023-05-22T05:22:38.240Z,33.49
2023-05-22T05:23:38.278Z,33.44
2023-05-22T05:24:38.317Z,33.44
2023-05-22T05:25:38.353Z,33.34
2023-05-22T05:26:38.399Z,33.34
2023-05-22T05:27:38.445Z,33.24
2023-05-22T05:28:38.516Z,33.24
2023-05-22T05:29:38.560Z,33.18
2023-05-22T05:30:38.875Z,33.19
2023-05-22T05:31:38.670Z,33.13
2023-05-22T05:32:39.218Z,33.13
2023-05-22T05:33:38.793Z,33.09
2023-05-22T05:34:38.820Z,33.02
2023-05-22T05:35:41.429Z,32.93
2023-05-22T05:36:38.866Z,32.90
2023-05-22T05:37:38.851Z,32.93
2023-05-22T05:38:38.837Z,32.93
2023-05-22T05:39:38.848Z,32.93
2023-05-22T05:40:39.178Z,32.94
2023-05-22T05:41:38.805Z,32.88
2023-05-22T05:42:39.780Z,32.88
2023-05-22T05:43:38.786Z,32.88
2023-05-22T05:44:39.223Z,32.97
2023-05-22T05:45:38.781Z,32.87
2023-05-22T05:46:38.941Z,32.93
2023-05-22T05:47:39.246Z,32.91
2023-05-22T05:48:38.938Z,32.94
2023-05-22T05:49:39.288Z,32.91
2023-05-22T05:50:39.398Z,33.12
2023-05-22T05:51:39.090Z,33.08
2023-05-22T05:52:39.216Z,33.16
2023-05-22T05:53:39.201Z,33.34
2023-05-22T05:54:54.872Z,33.35
2023-05-22T05:55:39.273Z,33.47
2023-05-22T05:56:46.614Z,33.55
2023-05-22T05:57:39.190Z,33.74
2023-05-22T05:58:39.189Z,33.69
2023-05-22T05:59:46.566Z,33.72
2023-05-22T06:00:39.439Z,33.69
2023-05-22T06:01:42.413Z,33.67
2023-05-22T06:04:45.841Z,33.54
2023-05-22T06:05:40.290Z,33.52
2023-05-22T06:07:10.851Z,33.45
2023-05-22T06:07:42.242Z,33.43
2023-05-22T06:09:42.235Z,33.38
2023-05-22T06:11:11.020Z,33.36
2023-05-22T06:11:46.409Z,33.31
2023-05-22T06:12:42.174Z,33.35
2023-05-22T06:13:42.913Z,33.35
2023-05-22T06:16:46.387Z,33.32
2023-05-22T06:17:39.322Z,33.32
2023-05-22T06:18:39.005Z,33.35
2023-05-22T06:19:39.118Z,33.38
2023-05-22T06:20:39.135Z,33.39
2023-05-22T06:21:39.250Z,33.35
2023-05-22T06:22:38.871Z,33.37
2023-05-22T06:23:38.831Z,33.47
2023-05-22T06:24:38.817Z,33.55
2023-05-22T06:25:38.801Z,33.54
2023-05-22T06:26:39.285Z,33.55
2023-05-22T06:27:38.762Z,33.55
2023-05-22T06:28:38.745Z,33.59
2023-05-22T06:29:38.721Z,33.65
2023-05-22T06:30:40.317Z,33.61
2023-05-22T06:31:38.747Z,33.66
2023-05-22T06:32:40.152Z,33.67
2023-05-22T06:33:38.881Z,33.65
2023-05-22T06:34:38.841Z,33.63
2023-05-22T06:35:38.888Z,33.62
2023-05-22T06:36:38.940Z,33.66
2023-05-22T06:37:39.030Z,33.66
2023-05-22T06:38:39.018Z,33.62
2023-05-22T06:39:39.030Z,33.58
2023-05-22T06:40:39.224Z,33.60
2023-05-22T06:41:39.087Z,33.57
2023-05-22T06:42:39.127Z,33.56
2023-05-22T06:43:39.336Z,33.58
2023-05-22T06:44:39.187Z,33.56
2023-05-22T06:45:39.228Z,33.54
2023-05-22T06:46:39.314Z,33.46
2023-05-22T06:47:39.856Z,33.42
2023-05-22T06:48:39.314Z,33.43
2023-05-22T06:49:39.357Z,33.44
2023-05-22T06:50:39.735Z,33.41
2023-05-22T06:51:40.456Z,33.40
2023-05-22T06:52:39.737Z,33.40
2023-05-22T06:53:39.477Z,33.38
2023-05-22T06:54:40.100Z,33.38
2023-05-22T06:55:46.965Z,33.42
2023-05-22T06:56:39.550Z,33.45
2023-05-22T06:57:40.730Z,33.42
2023-05-22T06:58:42.669Z,33.37
2023-05-22T06:59:39.708Z,33.29
2023-05-22T07:00:47.485Z,33.37
2023-05-22T07:01:39.495Z,33.37
2023-05-22T07:02:40.067Z,33.33
2023-05-22T07:03:39.386Z,33.29
2023-05-22T07:04:39.376Z,33.23
2023-05-22T07:05:39.380Z,33.21
2023-05-22T07:06:39.409Z,33.18
2023-05-22T07:07:39.900Z,33.18
2023-05-22T07:08:40.247Z,33.17
2023-05-22T07:09:42.498Z,33.16
2023-05-22T07:10:39.824Z,33.18
2023-05-22T07:11:39.216Z,33.12
2023-05-22T07:12:39.166Z,33.06
2023-05-22T07:13:39.138Z,33.05
2023-05-22T07:14:46.507Z,33.10
2023-05-22T07:15:39.108Z,33.12
2023-05-22T07:16:39.097Z,33.24
2023-05-22T07:17:39.327Z,33.17
2023-05-22T07:18:39.041Z,33.20
2023-05-22T07:19:39.016Z,33.25
2023-05-22T07:20:39.220Z,33.18
2023-05-22T07:21:38.970Z,33.21
2023-05-22T07:22:38.960Z,33.24
2023-05-22T07:23:39.104Z,33.20
2023-05-22T07:24:39.037Z,33.16
2023-05-22T07:25:38.893Z,33.13
2023-05-22T07:26:38.883Z,33.05
2023-05-22T07:27:38.854Z,33.05
2023-05-22T07:28:39.254Z,33.06
2023-05-22T07:29:39.802Z,32.97
2023-05-22T07:30:38.984Z,33.00
2023-05-22T07:32:38.786Z,33.04
2023-05-22T07:33:38.756Z,33.05
2023-05-22T07:34:38.749Z,33.12
2023-05-22T07:35:46.083Z,33.20
2023-05-22T07:36:46.085Z,33.33
2023-05-22T07:37:46.045Z,33.48
2023-05-22T07:38:42.045Z,33.83
2023-05-22T07:39:38.567Z,34.07
2023-05-22T07:40:38.806Z,34.06
2023-05-22T07:42:41.700Z,34.31
2023-05-22T07:43:38.785Z,34.36
2023-05-22T07:44:41.631Z,34.46
2023-05-22T07:45:38.627Z,34.42
2023-05-22T07:46:38.558Z,34.41
2023-05-22T07:47:56.395Z,34.37
2023-05-22T07:48:38.364Z,34.38
2023-05-22T07:49:46.150Z,34.48
2023-05-22T07:50:38.300Z,34.47
2023-05-22T07:52:53.837Z,34.53
2023-05-22T07:53:45.914Z,34.68
2023-05-22T07:54:42.437Z,34.69
2023-05-22T07:55:41.592Z,34.71
2023-05-22T07:56:38.148Z,34.73
2023-05-22T07:57:38.104Z,34.84
2023-05-22T07:58:38.255Z,34.95
2023-05-22T07:59:38.045Z,34.92
2023-05-22T08:00:38.037Z,35.04
2023-05-22T08:01:39.022Z,35.05
2023-05-22T08:02:38.358Z,35.02
2023-05-22T08:03:38.485Z,35.15
2023-05-22T08:04:38.053Z,35.06
2023-05-22T08:05:38.291Z,34.89
2023-05-22T08:06:37.941Z,35.13
2023-05-22T08:07:37.839Z,35.00
2023-05-22T08:08:38.263Z,34.97
2023-05-22T08:09:38.077Z,34.92
2023-05-22T08:10:52.206Z,34.89
2023-05-22T08:11:39.702Z,35.00
2023-05-22T08:12:37.759Z,34.92
2023-05-22T08:13:40.955Z,34.94
2023-05-22T08:14:37.702Z,34.99
2023-05-22T08:15:37.668Z,34.93
2023-05-22T08:16:37.766Z,34.92
2023-05-22T08:17:37.597Z,34.95
2023-05-22T08:18:37.772Z,34.94
2023-05-22T08:19:37.768Z,34.69
2023-05-22T08:20:37.621Z,34.84
2023-05-22T08:21:37.489Z,34.63
2023-05-22T08:22:37.419Z,34.58
2023-05-22T08:23:37.772Z,34.64
2023-05-22T08:24:37.367Z,34.78
2023-05-22T08:25:37.419Z,34.55
2023-05-22T08:26:37.317Z,34.67
2023-05-22T08:27:37.242Z,34.65
2023-05-22T08:28:37.597Z,34.65
2023-05-22T08:29:37.262Z,34.42
2023-05-22T08:30:37.438Z,34.57
2023-05-22T08:31:37.161Z,34.40
2023-05-22T08:32:37.104Z,34.29
2023-05-22T08:33:37.060Z,34.38
2023-05-22T08:34:37.028Z,34.38
2023-05-22T08:35:37.021Z,34.22
2023-05-22T08:36:37.033Z,34.28
2023-05-22T08:37:37.023Z,34.25
2023-05-22T08:38:37.275Z,34.28
2023-05-22T08:39:37.279Z,34.07
2023-05-22T08:40:37.141Z,34.09
2023-05-22T08:41:37.258Z,34.15
2023-05-22T08:42:37.025Z,33.92
2023-05-22T08:43:44.414Z,34.21
2023-05-22T08:44:37.273Z,34.44
2023-05-22T08:45:37.014Z,34.54
2023-05-22T08:46:36.967Z,34.65
2023-05-22T08:47:37.349Z,34.54
2023-05-22T08:48:36.839Z,34.45
2023-05-22T08:49:44.206Z,34.63
2023-05-22T08:50:36.910Z,34.46
2023-05-22T08:51:36.735Z,34.70
2023-05-22T08:52:36.768Z,34.71
2023-05-22T08:53:36.768Z,34.75
2023-05-22T08:54:36.754Z,34.73
2023-05-22T08:55:40.486Z,34.41
2023-05-22T08:56:39.724Z,34.38
2023-05-22T08:57:36.909Z,34.36
2023-05-22T08:58:36.488Z,33.84
2023-05-22T08:59:36.447Z,34.00
2023-05-22T09:00:36.435Z,33.99
2023-05-22T09:01:36.402Z,33.92
2023-05-22T09:02:36.796Z,33.81
2023-05-22T09:03:36.927Z,33.80
2023-05-22T09:04:36.319Z,33.42
2023-05-22T09:05:36.232Z,33.87
2023-05-22T09:06:36.220Z,33.98
2023-05-22T09:07:36.281Z,33.64
2023-05-22T09:08:36.149Z,32.80
2023-05-22T09:09:36.081Z,32.32
2023-05-22T09:10:36.056Z,32.24
2023-05-22T09:11:36.299Z,32.15
2023-05-22T09:12:35.975Z,32.23
2023-05-22T09:13:36.024Z,32.06
2023-05-22T09:14:35.957Z,32.15
2023-05-22T09:15:35.863Z,32.28
2023-05-22T09:16:35.897Z,32.41
2023-05-22T09:17:36.878Z,32.40
2023-05-22T09:18:35.789Z,32.30
2023-05-22T09:19:35.868Z,32.25
2023-05-22T09:20:35.819Z,32.08
2023-05-22T09:21:36.639Z,32.13
2023-05-22T09:22:35.788Z,32.03
2023-05-22T09:23:35.554Z,31.86
2023-05-22T09:24:35.541Z,31.91
2023-05-22T09:25:35.751Z,31.77
2023-05-22T09:26:35.853Z,31.96
2023-05-22T09:27:35.791Z,31.89
2023-05-22T09:28:39.027Z,32.06
2023-05-22T09:29:35.328Z,31.91
2023-05-22T09:30:35.284Z,31.85
2023-05-22T09:31:35.300Z,32.13
2023-05-22T09:32:35.243Z,31.77
2023-05-22T09:33:35.300Z,31.75
2023-05-22T09:34:42.532Z,32.14
2023-05-22T09:35:35.324Z,31.99
2023-05-22T09:36:35.058Z,32.04
2023-05-22T09:37:35.007Z,32.04
2023-05-22T09:38:38.166Z,31.81
2023-05-22T09:39:38.131Z,32.03
2023-05-22T09:40:35.400Z,32.12
2023-05-22T09:41:34.844Z,32.18
2023-05-22T09:42:50.401Z,32.04
2023-05-22T09:43:35.815Z,31.92
2023-05-22T09:44:50.400Z,31.98
2023-05-22T09:45:35.695Z,32.48
2023-05-22T09:46:34.650Z,32.47
2023-05-22T09:47:34.943Z,32.47
2023-05-22T09:48:34.537Z,32.47
2023-05-22T09:49:34.492Z,32.44
2023-05-22T09:50:34.466Z,32.54
2023-05-22T09:51:34.433Z,32.70
2023-05-22T09:52:34.527Z,32.70
2023-05-22T09:53:34.800Z,32.56
2023-05-22T09:54:34.437Z,32.53
2023-05-22T09:55:34.418Z,32.87
2023-05-22T09:56:39.110Z,32.59
2023-05-22T09:57:34.813Z,32.55
2023-05-22T09:58:35.352Z,32.51
2023-05-22T09:59:34.315Z,32.50
2023-05-22T10:00:34.307Z,32.26
2023-05-22T10:01:34.270Z,32.16
2023-05-22T10:02:34.215Z,32.25
2023-05-22T10:03:34.306Z,32.19
2023-05-22T10:04:34.220Z,32.58
2023-05-22T10:05:34.071Z,32.48
2023-05-22T10:06:34.025Z,32.26
2023-05-22T10:07:33.971Z,32.18
2023-05-22T10:08:34.351Z,32.31
2023-05-22T10:09:34.357Z,32.32
2023-05-22T10:10:33.991Z,32.08
2023-05-22T10:11:34.029Z,31.76
2023-05-22T10:12:34.021Z,31.73
2023-05-22T10:13:34.316Z,31.81
2023-05-22T10:14:34.326Z,31.85
2023-05-22T10:15:34.016Z,31.87
2023-05-22T10:16:34.325Z,32.04
2023-05-22T10:17:34.031Z,32.08
2023-05-22T10:18:34.835Z,31.91
2023-05-22T10:19:34.102Z,31.81
2023-05-22T10:20:34.016Z,31.70
2023-05-22T10:21:34.013Z,31.84
2023-05-22T10:22:34.008Z,32.08
2023-05-22T10:23:34.331Z,32.48
2023-05-22T10:24:34.313Z,32.36
2023-05-22T10:25:34.018Z,32.31
2023-05-22T10:26:34.009Z,32.63
2023-05-22T10:27:34.013Z,32.58
2023-05-22T10:28:34.315Z,32.26
2023-05-22T10:29:34.001Z,32.47
2023-05-22T10:30:33.986Z,31.72
2023-05-22T10:31:33.983Z,31.44
2023-05-22T10:32:34.494Z,31.70
2023-05-22T10:33:34.065Z,31.65
2023-05-22T10:34:33.972Z,31.72
2023-05-22T10:35:33.957Z,31.95
2023-05-22T10:36:33.971Z,31.76
2023-05-22T10:37:33.936Z,31.73
2023-05-22T10:38:33.980Z,31.49
2023-05-22T10:39:34.332Z,31.56
2023-05-22T10:40:33.904Z,31.54
2023-05-22T10:41:33.889Z,31.37
2023-05-22T10:42:34.113Z,31.32
2023-05-22T10:43:33.859Z,31.65
2023-05-22T10:44:33.844Z,31.54
2023-05-22T10:45:33.948Z,31.28
2023-05-22T10:46:33.915Z,30.91
2023-05-22T10:47:33.912Z,31.12
2023-05-22T10:48:33.940Z,30.91
2023-05-22T10:49:33.825Z,30.79
2023-05-22T10:50:33.773Z,30.64
2023-05-22T10:51:33.900Z,30.52
2023-05-22T10:52:33.729Z,30.37
2023-05-22T10:53:33.828Z,30.36
2023-05-22T10:54:33.882Z,30.24
2023-05-22T10:55:34.691Z,30.57
2023-05-22T10:56:33.769Z,30.37
2023-05-22T10:57:33.661Z,30.41
2023-05-22T10:58:33.839Z,30.42
2023-05-22T10:59:33.651Z,30.37
2023-05-22T11:00:33.608Z,30.33
2023-05-22T11:01:33.596Z,30.32
2023-05-22T11:02:34.662Z,30.33
2023-05-22T11:03:33.875Z,30.21
2023-05-22T11:04:33.680Z,30.10
2023-05-22T11:05:36.781Z,30.15
2023-05-22T11:06:33.461Z,30.05
2023-05-22T11:07:33.410Z,30.13
2023-05-22T11:08:33.830Z,29.99
2023-05-22T11:09:36.505Z,29.93
2023-05-22T11:10:33.250Z,29.96
2023-05-22T11:11:33.195Z,29.91
2023-05-22T11:12:33.198Z,29.89
2023-05-22T11:13:33.347Z,30.04
2023-05-22T11:14:33.334Z,29.92
2023-05-22T11:15:33.031Z,30.16
2023-05-22T11:16:32.971Z,30.36
2023-05-22T11:17:32.958Z,30.23
2023-05-22T11:18:32.838Z,30.00
2023-05-22T11:19:32.872Z,30.42
2023-05-22T11:20:32.871Z,30.46
2023-05-22T11:21:32.701Z,30.42
2023-05-22T11:22:33.706Z,30.22
2023-05-22T11:23:33.001Z,30.51
2023-05-22T11:24:32.845Z,30.26
2023-05-22T11:25:32.519Z,30.24
2023-05-22T11:26:32.482Z,30.22
2023-05-22T11:27:35.707Z,30.41
2023-05-22T11:28:35.592Z,30.44
2023-05-22T11:29:32.889Z,29.99
2023-05-22T11:30:32.311Z,30.46
2023-05-22T11:31:32.292Z,30.42
2023-05-22T11:32:32.299Z,30.38
2023-05-22T11:33:32.359Z,30.46
2023-05-22T11:34:32.127Z,30.70
2023-05-22T11:35:35.400Z,30.43
2023-05-22T11:36:32.055Z,30.84
2023-05-22T11:37:31.990Z,31.08
2023-05-22T11:38:31.954Z,30.89
2023-05-22T11:39:31.914Z,31.07
2023-05-22T11:40:31.837Z,30.15
2023-05-22T11:41:33.516Z,30.33
2023-05-22T11:42:31.757Z,30.07
2023-05-22T11:43:31.720Z,29.98
2023-05-22T11:44:31.669Z,30.34
2023-05-22T11:45:31.613Z,30.32
2023-05-22T11:46:31.663Z,30.17
2023-05-22T11:47:31.584Z,29.99
2023-05-22T11:48:31.862Z,30.10
2023-05-22T11:49:31.473Z,29.63
2023-05-22T11:50:43.688Z,29.67
2023-05-22T11:51:31.487Z,30.21
2023-05-22T11:52:31.299Z,29.88
2023-05-22T11:53:31.612Z,30.04
2023-05-22T11:54:31.218Z,29.93
2023-05-22T11:55:31.186Z,29.61
2023-05-22T11:56:31.122Z,29.27
2023-05-22T11:57:31.070Z,29.23
2023-05-22T11:58:31.352Z,29.81
2023-05-22T11:59:30.982Z,29.93
2023-05-22T12:00:31.054Z,29.70
2023-05-22T12:01:30.890Z,29.77
2023-05-22T12:02:30.956Z,29.48
2023-05-22T12:03:30.935Z,29.42
2023-05-22T12:04:30.765Z,30.23
2023-05-22T12:05:30.786Z,29.83
2023-05-22T12:06:30.740Z,30.43
2023-05-22T12:07:30.792Z,30.28
2023-05-22T12:08:30.878Z,30.40
2023-05-22T12:09:30.532Z,30.25
2023-05-22T12:10:30.854Z,30.49
2023-05-22T12:11:30.442Z,30.71
2023-05-22T12:12:30.850Z,30.47
2023-05-22T12:13:30.366Z,30.58
2023-05-22T12:14:30.310Z,30.25
2023-05-22T12:15:30.248Z,30.20
2023-05-22T12:16:30.250Z,29.94
2023-05-22T12:17:30.196Z,30.35
2023-05-22T12:18:30.376Z,30.36
2023-05-22T12:19:30.188Z,30.38
2023-05-22T12:20:30.020Z,30.40
2023-05-22T12:21:29.965Z,30.41
2023-05-22T12:22:29.935Z,30.44
2023-05-22T12:23:29.988Z,30.14
2023-05-22T12:24:29.818Z,30.01
2023-05-22T12:25:29.778Z,30.02
2023-05-22T12:26:30.724Z,29.94
2023-05-22T12:27:32.398Z,29.55
2023-05-22T12:28:29.628Z,29.62
2023-05-22T12:29:29.861Z,29.54
2023-05-22T12:30:29.526Z,29.43
2023-05-22T12:31:29.494Z,29.67
2023-05-22T12:32:29.550Z,29.62
2023-05-22T12:33:29.858Z,29.47
2023-05-22T12:34:29.295Z,29.31
2023-05-22T12:35:29.268Z,29.40
2023-05-22T12:36:29.186Z,29.61
2023-05-22T12:37:29.127Z,29.36
2023-05-22T12:38:29.367Z,29.21
2023-05-22T12:39:29.144Z,29.28
2023-05-22T12:40:28.967Z,29.51
2023-05-22T12:41:28.931Z,29.50
2023-05-22T12:42:28.876Z,29.39
2023-05-22T12:43:28.817Z,29.16
2023-05-22T12:44:28.782Z,29.22
2023-05-22T12:45:28.732Z,29.30
2023-05-22T12:46:28.686Z,29.28
2023-05-22T12:47:28.656Z,29.52
2023-05-22T12:48:28.581Z,29.70
2023-05-22T12:49:28.521Z,30.08
2023-05-22T12:50:28.476Z,29.93
2023-05-22T12:51:28.430Z,29.97
2023-05-22T12:52:28.390Z,30.12
2023-05-22T12:53:28.453Z,30.11
2023-05-22T12:54:28.286Z,30.38
2023-05-22T12:55:28.376Z,30.35
2023-05-22T12:56:28.196Z,30.66
2023-05-22T12:57:28.142Z,30.76
2023-05-22T12:58:28.378Z,30.94
2023-05-22T12:59:28.057Z,31.03
2023-05-22T13:00:28.007Z,31.12